Time;durP1;ratioP1;P1;durP2;ratioP2;P2;SDS_P1;SDS_P2;PMS_P1;PMS_P2;Temp;Humidity;BMP_temperature;BMP_pressure;BME280_temperature;BME280_humidity;BME280_pressure;Samples;Min_cycle;Max_cycle;Signal;HPM_P1;HPM_P2
2022/03/07 00:00:43;;;;;;;34.03;24.77;;;;;;;;;;4972985;28;20200;-80
2022/03/07 00:03:09;;;;;;;31.63;24.58;;;;;;;;;;4992645;28;20183;-81
2022/03/07 00:05:35;;;;;;;37.10;23.65;;;;;;;;;;4974979;28;20215;-81
2022/03/07 00:08:01;;;;;;;36.72;25.50;;;;;;;;;;4976972;28;20221;-80
2022/03/07 00:10:27;;;;;;;34.08;23.05;;;;;;;;;;4976467;28;20180;-81
2022/03/07 00:12:54;;;;;;;38.65;22.52;;;;;;;;;;4978134;28;20184;-81
2022/03/07 00:15:20;;;;;;;34.33;24.35;;;;;;;;;;4967424;28;20184;-80
2022/03/07 00:17:46;;;;;;;38.20;25.58;;;;;;;;;;4986901;28;20216;-81
2022/03/07 00:20:12;;;;;;;33.80;23.25;;;;;;;;;;4984878;28;20219;-81
2022/03/07 00:22:38;;;;;;;36.33;24.27;;;;;;;;;;4976448;28;20192;-81
2022/03/07 00:25:04;;;;;;;31.73;24.50;;;;;;;;;;4963271;28;20203;-81
2022/03/07 00:27:30;;;;;;;39.42;23.58;;;;;;;;;;4968418;28;20240;-81
2022/03/07 00:29:56;;;;;;;30.95;21.98;;;;;;;;;;4977502;28;20184;-81
2022/03/07 00:32:22;;;;;;;35.42;23.05;;;;;;;;;;4975473;28;20196;-81
2022/03/07 00:34:48;;;;;;;35.40;22.60;;;;;;;;;;4983654;28;20187;-81
2022/03/07 00:37:14;;;;;;;33.88;23.08;;;;;;;;;;4970598;28;20180;-81
2022/03/07 00:39:40;;;;;;;34.75;24.95;;;;;;;;;;4969760;28;20215;-81
2022/03/07 00:42:07;;;;;;;34.65;23.48;;;;;;;;;;5003738;28;20234;-81
2022/03/07 00:44:33;;;;;;;31.17;21.88;;;;;;;;;;4977033;28;20187;-81
2022/03/07 00:46:59;;;;;;;31.10;21.90;;;;;;;;;;4980095;28;20184;-82
2022/03/07 00:49:25;;;;;;;29.35;20.58;;;;;;;;;;4982062;28;20191;-81
2022/03/07 00:51:51;;;;;;;31.10;21.58;;;;;;;;;;4981539;28;20168;-81
2022/03/07 00:54:17;;;;;;;31.52;21.65;;;;;;;;;;4972886;28;20211;-81
2022/03/07 00:56:43;;;;;;;33.97;22.38;;;;;;;;;;4988456;28;20192;-81
2022/03/07 00:59:09;;;;;;;28.88;22.33;;;;;;;;;;4973150;28;20203;-81
2022/03/07 01:01:35;;;;;;;31.08;20.73;;;;;;;;;;4981535;28;20215;-81
2022/03/07 01:04:01;;;;;;;37.25;23.35;;;;;;;;;;4983434;28;20179;-81
2022/03/07 01:06:27;;;;;;;31.38;22.40;;;;;;;;;;4970469;28;20177;-81
2022/03/07 01:08:53;;;;;;;29.38;20.27;;;;;;;;;;4979451;28;20214;-82
2022/03/07 01:11:19;;;;;;;31.00;20.70;;;;;;;;;;4972429;28;20188;-81
2022/03/07 01:13:45;;;;;;;28.40;19.45;;;;;;;;;;4971353;28;20203;-81
2022/03/07 01:16:11;;;;;;;32.05;21.23;;;;;;;;;;4966321;28;20252;-81
2022/03/07 01:18:37;;;;;;;28.77;19.45;;;;;;;;;;4979049;28;20207;-82
2022/03/07 01:21:03;;;;;;;29.70;20.65;;;;;;;;;;4976757;28;20278;-80
2022/03/07 01:23:29;;;;;;;34.80;19.92;;;;;;;;;;4982023;28;20208;-82
2022/03/07 01:25:55;;;;;;;28.90;19.17;;;;;;;;;;4980177;28;20184;-81
2022/03/07 01:28:21;;;;;;;31.90;21.13;;;;;;;;;;4995503;28;20256;-81
2022/03/07 01:30:48;;;;;;;30.00;19.17;;;;;;;;;;4971070;28;20184;-80
2022/03/07 01:33:14;;;;;;;22.67;18.50;;;;;;;;;;4974812;28;20188;-81
2022/03/07 01:35:40;;;;;;;35.25;20.90;;;;;;;;;;4972916;28;20242;-81
2022/03/07 01:38:06;;;;;;;27.30;19.77;;;;;;;;;;4979036;28;20196;-81
2022/03/07 01:40:32;;;;;;;26.67;18.33;;;;;;;;;;4978565;28;20232;-81
2022/03/07 01:42:58;;;;;;;30.45;20.00;;;;;;;;;;4981925;28;20191;-81
2022/03/07 01:45:24;;;;;;;26.65;19.08;;;;;;;;;;4977991;28;20187;-81
2022/03/07 01:47:50;;;;;;;32.28;20.80;;;;;;;;;;5003515;28;20179;-80
2022/03/07 01:50:17;;;;;;;24.48;18.85;;;;;;;;;;4976627;28;20181;-81
2022/03/07 01:52:47;;;;;;;24.20;17.83;;;;;;;;;;5000680;28;20203;-81
2022/03/07 01:55:14;;;;;;;32.22;19.33;;;;;;;;;;4982994;28;20252;-81
2022/03/07 01:57:41;;;;;;;25.75;18.55;;;;;;;;;;4969486;28;20229;-81
2022/03/07 02:00:08;;;;;;;25.67;18.40;;;;;;;;;;4993735;28;20215;-81
2022/03/07 02:02:34;;;;;;;26.38;18.65;;;;;;;;;;4975573;28;20740;-81
2022/03/07 02:05:00;;;;;;;25.00;17.80;;;;;;;;;;4971972;28;20192;-81
2022/03/07 02:07:26;;;;;;;29.30;18.75;;;;;;;;;;4980621;28;20192;-81
2022/03/07 02:09:52;;;;;;;23.67;17.60;;;;;;;;;;4965959;28;20183;-80
2022/03/07 02:12:19;;;;;;;26.60;17.83;;;;;;;;;;4981439;28;20192;-80
2022/03/07 02:14:45;;;;;;;26.05;18.92;;;;;;;;;;4977763;28;20188;-81
2022/03/07 02:17:11;;;;;;;25.13;18.42;;;;;;;;;;4977036;28;20200;-80
2022/03/07 02:19:37;;;;;;;26.95;19.10;;;;;;;;;;4968833;28;20181;-81
2022/03/07 02:22:04;;;;;;;26.25;17.20;;;;;;;;;;4980168;28;20191;-81
2022/03/07 02:24:30;;;;;;;28.25;18.02;;;;;;;;;;4979772;28;20194;-81
2022/03/07 02:27:00;;;;;;;27.45;17.80;;;;;;;;;;4982093;28;20176;-81
2022/03/07 02:29:26;;;;;;;24.85;17.00;;;;;;;;;;4976908;28;20234;-81
2022/03/07 02:31:53;;;;;;;28.80;18.50;;;;;;;;;;4993636;28;20203;-80
2022/03/07 02:34:19;;;;;;;24.10;17.23;;;;;;;;;;5004770;28;20184;-81
2022/03/07 02:36:45;;;;;;;24.02;17.15;;;;;;;;;;4981922;28;20180;-81
2022/03/07 02:39:11;;;;;;;25.45;16.80;;;;;;;;;;4980263;28;20220;-81
2022/03/07 02:41:38;;;;;;;23.95;16.23;;;;;;;;;;4974716;28;20216;-81
2022/03/07 02:44:04;;;;;;;27.23;18.52;;;;;;;;;;4985483;28;20191;-81
2022/03/07 02:46:30;;;;;;;24.58;16.83;;;;;;;;;;4980493;28;20227;-81
2022/03/07 02:48:56;;;;;;;24.40;16.25;;;;;;;;;;4966264;28;20177;-80
2022/03/07 02:51:22;;;;;;;24.25;16.30;;;;;;;;;;4969129;28;20188;-81
2022/03/07 02:53:49;;;;;;;25.38;16.15;;;;;;;;;;4972158;28;20207;-80
2022/03/07 02:56:15;;;;;;;24.83;18.10;;;;;;;;;;4980817;28;20203;-81
2022/03/07 02:58:41;;;;;;;23.30;17.80;;;;;;;;;;4979507;28;20188;-81
2022/03/07 03:01:07;;;;;;;28.02;16.75;;;;;;;;;;4979144;28;20212;-81
2022/03/07 03:03:33;;;;;;;25.02;17.05;;;;;;;;;;4967847;28;20216;-81
2022/03/07 03:06:00;;;;;;;24.15;17.67;;;;;;;;;;4980625;28;20358;-81
2022/03/07 03:08:26;;;;;;;23.13;16.27;;;;;;;;;;4980165;28;20191;-80
2022/03/07 03:10:52;;;;;;;23.65;15.73;;;;;;;;;;4973516;28;20683;-80
2022/03/07 03:13:20;;;;;;;27.63;18.45;;;;;;;;;;4964805;28;20213;-81
2022/03/07 03:15:46;;;;;;;25.23;16.70;;;;;;;;;;4961627;28;20180;-80
2022/03/07 03:18:13;;;;;;;25.58;17.08;;;;;;;;;;4994232;28;20215;-81
2022/03/07 03:20:39;;;;;;;21.98;16.48;;;;;;;;;;4972406;28;20200;-81
2022/03/07 03:23:05;;;;;;;26.38;16.02;;;;;;;;;;5000100;28;20199;-81
2022/03/07 03:25:31;;;;;;;29.52;16.88;;;;;;;;;;4982057;28;20750;-81
2022/03/07 03:27:58;;;;;;;20.02;15.77;;;;;;;;;;4965779;28;20263;-81
2022/03/07 03:30:24;;;;;;;26.60;16.52;;;;;;;;;;4968645;28;20177;-81
2022/03/07 03:32:50;;;;;;;20.58;14.85;;;;;;;;;;4989999;28;20196;-81
2022/03/07 03:35:16;;;;;;;22.55;15.77;;;;;;;;;;4977837;28;20199;-81
2022/03/07 03:37:42;;;;;;;23.25;15.52;;;;;;;;;;4980675;28;20198;-82
2022/03/07 03:40:10;;;;;;;23.17;15.43;;;;;;;;;;4979982;28;20291;-81
2022/03/07 03:42:36;;;;;;;23.02;15.63;;;;;;;;;;4975611;28;20206;-81
2022/03/07 03:45:05;;;;;;;26.20;15.73;;;;;;;;;;4979757;28;20187;-81
2022/03/07 03:47:31;;;;;;;23.70;15.95;;;;;;;;;;4979430;28;20633;-81
2022/03/07 03:49:57;;;;;;;22.88;14.70;;;;;;;;;;4979328;28;20188;-80
2022/03/07 03:52:23;;;;;;;20.15;15.00;;;;;;;;;;4994457;28;20221;-80
2022/03/07 03:54:49;;;;;;;21.10;13.88;;;;;;;;;;4979108;28;20222;-80
2022/03/07 03:57:15;;;;;;;21.02;15.48;;;;;;;;;;4970252;28;20188;-81
2022/03/07 03:59:41;;;;;;;18.42;14.10;;;;;;;;;;4991800;28;20271;-81
2022/03/07 04:02:07;;;;;;;21.15;14.93;;;;;;;;;;4977253;28;20188;-81
2022/03/07 04:04:33;;;;;;;22.10;15.40;;;;;;;;;;4979375;28;20190;-81
2022/03/07 04:07:00;;;;;;;19.88;14.30;;;;;;;;;;4978306;28;20184;-81
2022/03/07 04:09:26;;;;;;;25.70;16.10;;;;;;;;;;4979288;28;20195;-81
2022/03/07 04:11:54;;;;;;;23.35;15.80;;;;;;;;;;4982609;28;20191;-81
2022/03/07 04:14:20;;;;;;;16.88;13.30;;;;;;;;;;4982205;28;20184;-80
2022/03/07 04:16:46;;;;;;;24.17;15.07;;;;;;;;;;4979241;28;20184;-81
2022/03/07 04:19:12;;;;;;;22.77;15.73;;;;;;;;;;4983167;28;20191;-82
2022/03/07 04:21:39;;;;;;;21.73;15.05;;;;;;;;;;4968381;28;20212;-82
2022/03/07 04:24:06;;;;;;;17.33;15.38;;;;;;;;;;4981550;28;20199;-82
2022/03/07 04:26:32;;;;;;;21.02;15.40;;;;;;;;;;4982869;28;20521;-82
2022/03/07 04:29:00;;;;;;;18.40;13.70;;;;;;;;;;4982294;28;20514;-81
2022/03/07 04:31:26;;;;;;;21.17;16.25;;;;;;;;;;4989211;28;20738;-82
2022/03/07 04:33:52;;;;;;;18.98;13.95;;;;;;;;;;4980564;28;20215;-82
2022/03/07 04:36:21;;;;;;;20.75;16.05;;;;;;;;;;4973107;28;20176;-82
2022/03/07 04:38:47;;;;;;;21.05;14.55;;;;;;;;;;4972915;28;20235;-82
2022/03/07 04:41:14;;;;;;;19.88;15.10;;;;;;;;;;5003269;28;20685;-82
2022/03/07 04:43:40;;;;;;;19.60;14.10;;;;;;;;;;5001989;28;20552;-82
2022/03/07 04:46:09;;;;;;;24.95;14.57;;;;;;;;;;4983645;28;20206;-82
2022/03/07 04:48:35;;;;;;;20.63;15.23;;;;;;;;;;4970143;28;20195;-82
2022/03/07 04:51:02;;;;;;;19.73;14.60;;;;;;;;;;4972877;28;20188;-80
2022/03/07 04:53:28;;;;;;;21.88;14.75;;;;;;;;;;4970946;28;20193;-81
2022/03/07 04:55:54;;;;;;;27.23;15.73;;;;;;;;;;4994673;28;20185;-82
2022/03/07 04:58:20;;;;;;;18.42;13.02;;;;;;;;;;4982563;28;20217;-81
2022/03/07 05:00:46;;;;;;;17.98;13.73;;;;;;;;;;4983912;28;20271;-81
2022/03/07 05:03:12;;;;;;;17.70;13.70;;;;;;;;;;4980418;28;20223;-81
2022/03/07 05:05:38;;;;;;;19.30;13.82;;;;;;;;;;4975404;28;20185;-82
2022/03/07 05:08:04;;;;;;;22.35;15.70;;;;;;;;;;4994358;28;20195;-82
2022/03/07 05:10:30;;;;;;;23.17;14.40;;;;;;;;;;4993190;28;20185;-81
2022/03/07 05:12:56;;;;;;;18.15;13.43;;;;;;;;;;4965256;28;20185;-81
2022/03/07 05:15:22;;;;;;;19.83;14.95;;;;;;;;;;4970719;28;20188;-81
2022/03/07 05:17:51;;;;;;;22.67;14.27;;;;;;;;;;4995945;28;20190;-82
2022/03/07 05:20:17;;;;;;;23.10;16.15;;;;;;;;;;4979448;28;20203;-83
2022/03/07 05:22:44;;;;;;;19.23;13.73;;;;;;;;;;4982290;28;20180;-81
2022/03/07 05:25:10;;;;;;;19.98;14.15;;;;;;;;;;4966201;28;20259;-81
2022/03/07 05:27:36;;;;;;;21.77;13.13;;;;;;;;;;4967964;28;20191;-82
2022/03/07 05:30:03;;;;;;;23.52;14.43;;;;;;;;;;4982190;28;20187;-82
2022/03/07 05:32:29;;;;;;;22.38;14.30;;;;;;;;;;4976117;28;20192;-82
2022/03/07 05:34:55;;;;;;;14.77;12.30;;;;;;;;;;5003444;28;20259;-82
2022/03/07 05:37:21;;;;;;;18.23;13.88;;;;;;;;;;4982370;28;20218;-81
2022/03/07 05:39:47;;;;;;;23.52;14.25;;;;;;;;;;4967266;28;20220;-82
2022/03/07 05:42:13;;;;;;;20.20;13.95;;;;;;;;;;4995018;28;20184;-82
2022/03/07 05:44:39;;;;;;;26.02;16.75;;;;;;;;;;4981921;28;20188;-82
2022/03/07 05:47:06;;;;;;;24.73;17.13;;;;;;;;;;4980898;28;20531;-82
2022/03/07 05:49:32;;;;;;;21.45;15.52;;;;;;;;;;4978006;28;20197;-82
2022/03/07 05:51:57;;;;;;;22.92;15.07;;;;;;;;;;4977809;28;20200;-82
2022/03/07 05:54:23;;;;;;;22.85;16.58;;;;;;;;;;4971170;28;20185;-82
2022/03/07 05:56:49;;;;;;;19.70;14.48;;;;;;;;;;4970867;28;20195;-82
2022/03/07 05:59:15;;;;;;;17.88;14.82;;;;;;;;;;5010800;28;20192;-81
2022/03/07 06:01:41;;;;;;;23.17;15.38;;;;;;;;;;4981997;28;20339;-82
2022/03/07 06:04:08;;;;;;;20.00;13.75;;;;;;;;;;4981594;28;20689;-82
2022/03/07 06:06:34;;;;;;;20.67;14.07;;;;;;;;;;4983846;28;20168;-82
2022/03/07 06:09:00;;;;;;;18.65;13.93;;;;;;;;;;4973105;28;20188;-81
2022/03/07 06:11:26;;;;;;;18.77;14.07;;;;;;;;;;5004146;28;20192;-82
2022/03/07 06:13:52;;;;;;;21.25;15.30;;;;;;;;;;4981439;28;20192;-81
2022/03/07 06:16:18;;;;;;;20.85;14.90;;;;;;;;;;4989761;28;20198;-82
2022/03/07 06:18:44;;;;;;;16.75;13.95;;;;;;;;;;4962972;28;20272;-82
2022/03/07 06:21:11;;;;;;;21.58;14.45;;;;;;;;;;4975612;28;20215;-82
2022/03/07 06:23:37;;;;;;;28.00;15.07;;;;;;;;;;4991765;28;20577;-81
2022/03/07 06:26:06;;;;;;;15.38;13.60;;;;;;;;;;4971429;28;20196;-82
2022/03/07 06:28:33;;;;;;;18.88;14.35;;;;;;;;;;5003120;28;20184;-82
2022/03/07 06:30:59;;;;;;;18.52;14.57;;;;;;;;;;4980711;28;20195;-82
2022/03/07 06:33:25;;;;;;;26.52;19.35;;;;;;;;;;4970396;28;20189;-82
2022/03/07 06:35:51;;;;;;;21.50;14.95;;;;;;;;;;4997967;28;20269;-83
2022/03/07 06:38:19;;;;;;;21.80;15.00;;;;;;;;;;4976975;28;20196;-82
2022/03/07 06:40:45;;;;;;;20.02;15.70;;;;;;;;;;4991284;28;20206;-82
2022/03/07 06:43:11;;;;;;;20.00;15.52;;;;;;;;;;4964966;28;20188;-82
2022/03/07 06:45:38;;;;;;;20.45;14.60;;;;;;;;;;4970150;28;20191;-82
2022/03/07 06:48:04;;;;;;;22.52;15.75;;;;;;;;;;4980018;28;20194;-82
2022/03/07 06:50:30;;;;;;;19.17;14.43;;;;;;;;;;4981629;28;20180;-82
2022/03/07 06:52:56;;;;;;;20.65;15.48;;;;;;;;;;4978407;28;20191;-82
2022/03/07 06:55:23;;;;;;;21.80;15.50;;;;;;;;;;4977885;28;20197;-82
2022/03/07 06:57:49;;;;;;;25.50;13.93;;;;;;;;;;4977920;28;20184;-81
2022/03/07 07:00:16;;;;;;;22.15;15.13;;;;;;;;;;4970301;28;20204;-82
2022/03/07 07:02:42;;;;;;;22.77;15.55;;;;;;;;;;5002042;28;20180;-82
2022/03/07 07:05:08;;;;;;;19.15;15.32;;;;;;;;;;4975850;28;20184;-81
2022/03/07 07:07:35;;;;;;;21.10;16.52;;;;;;;;;;4973847;28;20262;-82
2022/03/07 07:10:01;;;;;;;20.17;14.68;;;;;;;;;;4994791;28;20229;-83
2022/03/07 07:12:27;;;;;;;21.30;14.35;;;;;;;;;;4978927;28;20193;-82
2022/03/07 07:14:53;;;;;;;22.40;14.75;;;;;;;;;;4988964;28;20213;-82
2022/03/07 07:17:19;;;;;;;21.25;14.65;;;;;;;;;;4974008;28;20204;-82
2022/03/07 07:19:45;;;;;;;25.05;14.65;;;;;;;;;;5000914;28;20204;-82
2022/03/07 07:22:11;;;;;;;20.27;14.43;;;;;;;;;;4980224;28;20183;-82
2022/03/07 07:24:37;;;;;;;21.60;14.23;;;;;;;;;;4965866;28;20230;-82
2022/03/07 07:27:03;;;;;;;20.23;15.90;;;;;;;;;;4969750;28;20184;-82
2022/03/07 07:29:29;;;;;;;22.48;15.23;;;;;;;;;;4973223;28;20180;-81
2022/03/07 07:31:55;;;;;;;22.92;14.77;;;;;;;;;;4979419;28;20194;-81
2022/03/07 07:34:22;;;;;;;20.70;15.50;;;;;;;;;;4965659;28;20226;-82
2022/03/07 07:36:49;;;;;;;23.27;15.68;;;;;;;;;;4982645;28;20179;-82
2022/03/07 07:39:15;;;;;;;20.20;15.48;;;;;;;;;;4987283;28;20212;-82
2022/03/07 07:41:42;;;;;;;20.83;15.23;;;;;;;;;;4976209;28;20681;-82
2022/03/07 07:44:08;;;;;;;22.38;14.85;;;;;;;;;;4975452;28;20592;-82
2022/03/07 07:46:34;;;;;;;21.60;14.60;;;;;;;;;;4978546;28;20192;-82
2022/03/07 07:49:00;;;;;;;18.92;14.43;;;;;;;;;;4964113;28;20192;-82
2022/03/07 07:51:26;;;;;;;19.50;13.95;;;;;;;;;;4971750;28;20181;-83
2022/03/07 07:53:52;;;;;;;24.17;15.00;;;;;;;;;;4974818;28;20218;-83
2022/03/07 07:56:18;;;;;;;19.90;14.10;;;;;;;;;;4978488;28;20184;-83
2022/03/07 07:58:44;;;;;;;22.83;15.93;;;;;;;;;;4976252;28;20211;-81
2022/03/07 08:01:10;;;;;;;21.95;16.13;;;;;;;;;;4978121;28;28487;-83
2022/03/07 08:03:36;;;;;;;21.05;14.48;;;;;;;;;;4961873;28;20177;-82
2022/03/07 08:06:02;;;;;;;17.95;14.73;;;;;;;;;;4984262;28;20192;-82
2022/03/07 08:08:28;;;;;;;17.52;14.32;;;;;;;;;;4971730;28;20203;-82
2022/03/07 08:10:54;;;;;;;22.83;15.38;;;;;;;;;;4962021;28;20195;-80
2022/03/07 08:13:20;;;;;;;24.73;15.05;;;;;;;;;;4995006;28;20187;-81
2022/03/07 08:15:46;;;;;;;22.15;15.07;;;;;;;;;;4995675;28;20180;-80
2022/03/07 08:18:12;;;;;;;17.13;14.80;;;;;;;;;;4977514;28;20252;-81
2022/03/07 08:20:38;;;;;;;21.20;14.55;;;;;;;;;;4975895;28;20287;-80
2022/03/07 08:23:05;;;;;;;22.98;15.00;;;;;;;;;;4971245;28;20193;-80
2022/03/07 08:25:32;;;;;;;20.50;15.60;;;;;;;;;;4981206;28;20180;-81
2022/03/07 08:27:59;;;;;;;20.00;15.45;;;;;;;;;;4976649;28;20175;-80
2022/03/07 08:30:26;;;;;;;17.73;13.20;;;;;;;;;;4975494;28;20217;-80
2022/03/07 08:32:53;;;;;;;20.67;15.02;;;;;;;;;;4978508;28;20199;-80
2022/03/07 08:35:19;;;;;;;21.27;14.90;;;;;;;;;;4978200;28;20184;-80
2022/03/07 08:37:46;;;;;;;17.45;14.57;;;;;;;;;;4978394;28;20699;-79
2022/03/07 08:40:13;;;;;;;20.83;14.38;;;;;;;;;;4976296;28;20228;-79
2022/03/07 08:42:40;;;;;;;21.25;16.65;;;;;;;;;;4981251;28;20207;-79
2022/03/07 08:45:06;;;;;;;19.98;14.40;;;;;;;;;;4968387;28;20617;-79
2022/03/07 08:47:33;;;;;;;19.50;15.27;;;;;;;;;;4968167;28;20177;-79
2022/03/07 08:49:59;;;;;;;20.25;14.48;;;;;;;;;;4990489;28;20203;-78
2022/03/07 08:52:25;;;;;;;23.02;15.40;;;;;;;;;;5002454;28;20196;-79
2022/03/07 08:54:51;;;;;;;18.52;14.20;;;;;;;;;;4979054;28;20247;-79
2022/03/07 08:57:17;;;;;;;20.70;16.17;;;;;;;;;;4979071;28;20207;-79
2022/03/07 08:59:43;;;;;;;21.85;16.05;;;;;;;;;;4981355;28;20180;-79
2022/03/07 09:02:10;;;;;;;20.42;14.05;;;;;;;;;;4975985;28;20184;-79
2022/03/07 09:04:37;;;;;;;20.23;14.57;;;;;;;;;;4995040;28;20196;-79
2022/03/07 09:07:03;;;;;;;21.08;14.85;;;;;;;;;;4983578;28;20510;-80
2022/03/07 09:09:29;;;;;;;18.98;15.48;;;;;;;;;;4971491;28;20188;-79
2022/03/07 09:11:55;;;;;;;17.60;14.15;;;;;;;;;;4991423;28;20188;-79
2022/03/07 09:14:21;;;;;;;21.95;15.82;;;;;;;;;;4979150;28;20561;-78
2022/03/07 09:16:47;;;;;;;20.77;15.50;;;;;;;;;;5024764;28;20188;-79
2022/03/07 09:19:13;;;;;;;18.90;14.35;;;;;;;;;;5066450;28;20454;-79
2022/03/07 09:21:39;;;;;;;22.05;14.95;;;;;;;;;;4968212;28;20232;-79
2022/03/07 09:24:05;;;;;;;21.77;15.00;;;;;;;;;;4974340;28;20250;-78
2022/03/07 09:26:32;;;;;;;18.80;14.57;;;;;;;;;;4971904;28;20203;-78
2022/03/07 09:28:58;;;;;;;18.48;14.48;;;;;;;;;;4971537;28;20255;-78
2022/03/07 09:31:24;;;;;;;17.13;13.95;;;;;;;;;;4983274;28;20218;-77
2022/03/07 09:33:50;;;;;;;22.33;14.55;;;;;;;;;;4967171;28;20192;-78
2022/03/07 09:36:16;;;;;;;16.98;13.45;;;;;;;;;;4972260;28;20180;-76
2022/03/07 09:38:43;;;;;;;15.90;14.23;;;;;;;;;;4988467;28;20262;-77
2022/03/07 09:41:10;;;;;;;21.27;14.95;;;;;;;;;;4976327;28;20210;-76
2022/03/07 09:43:36;;;;;;;21.63;15.68;;;;;;;;;;4989849;28;20185;-76
2022/03/07 09:46:03;;;;;;;20.20;16.65;;;;;;;;;;4966806;28;20244;-77
2022/03/07 09:48:29;;;;;;;19.45;13.43;;;;;;;;;;4973195;28;20181;-77
2022/03/07 09:50:56;;;;;;;19.70;14.70;;;;;;;;;;4978037;28;20184;-77
2022/03/07 09:53:22;;;;;;;20.52;15.32;;;;;;;;;;4976279;28;20191;-76
2022/03/07 09:55:48;;;;;;;18.38;13.93;;;;;;;;;;4984316;28;20192;-76
2022/03/07 09:58:14;;;;;;;18.55;14.98;;;;;;;;;;4997189;28;20180;-77
2022/03/07 10:00:41;;;;;;;19.67;14.40;;;;;;;;;;4969561;28;20227;-76
2022/03/07 10:03:09;;;;;;;19.27;14.73;;;;;;;;;;4971829;28;20183;-77
2022/03/07 10:05:46;;;;;;;23.23;14.95;;;;;;;;;;4973571;28;20184;-76
2022/03/07 10:08:22;;;;;;;17.88;14.80;;;;;;;;;;4974559;28;20224;-76
2022/03/07 10:10:50;;;;;;;17.00;13.93;;;;;;;;;;4982344;28;20198;-76
2022/03/07 10:13:16;;;;;;;16.98;15.25;;;;;;;;;;4969979;28;20184;-76
2022/03/07 10:15:43;;;;;;;19.05;15.10;;;;;;;;;;4967357;28;20188;-76
2022/03/07 10:18:16;;;;;;;16.90;13.82;;;;;;;;;;4975421;28;20188;-76
2022/03/07 10:20:49;;;;;;;17.80;13.82;;;;;;;;;;4981386;28;20220;-76
2022/03/07 10:23:15;;;;;;;17.88;15.35;;;;;;;;;;4975528;28;20199;-76
2022/03/07 10:25:44;;;;;;;16.77;13.85;;;;;;;;;;4981010;28;20199;-76
2022/03/07 10:28:10;;;;;;;22.90;15.02;;;;;;;;;;4980574;28;20216;-77
2022/03/07 10:30:37;;;;;;;15.85;13.05;;;;;;;;;;4973348;28;20200;-76
2022/03/07 10:33:05;;;;;;;14.57;12.10;;;;;;;;;;4978258;28;20190;-77
2022/03/07 10:35:42;;;;;;;17.77;14.23;;;;;;;;;;4981106;28;20183;-77
2022/03/07 10:38:13;;;;;;;15.98;12.80;;;;;;;;;;4976258;28;20200;-78
2022/03/07 10:40:43;;;;;;;16.48;13.07;;;;;;;;;;4971254;28;20212;-76
2022/03/07 10:43:12;;;;;;;17.13;14.15;;;;;;;;;;4965892;28;20203;-76
2022/03/07 10:45:45;;;;;;;17.25;13.65;;;;;;;;;;4966699;28;20656;-76
2022/03/07 10:48:12;;;;;;;16.58;13.52;;;;;;;;;;5040057;28;20192;-77
2022/03/07 10:50:38;;;;;;;20.98;13.02;;;;;;;;;;4980750;28;20239;-76
2022/03/07 10:53:07;;;;;;;20.30;14.90;;;;;;;;;;4980749;28;20191;-77
2022/03/07 10:55:34;;;;;;;18.27;13.40;;;;;;;;;;4979081;28;20178;-76
2022/03/07 10:58:08;;;;;;;14.80;12.63;;;;;;;;;;4979274;28;20179;-76
2022/03/07 11:00:34;;;;;;;17.88;13.10;;;;;;;;;;4970381;28;20202;-76
2022/03/07 11:03:00;;;;;;;14.45;12.95;;;;;;;;;;4975927;28;20194;-77
2022/03/07 11:05:27;;;;;;;15.85;12.82;;;;;;;;;;4976429;28;20271;-77
2022/03/07 11:07:53;;;;;;;13.00;11.65;;;;;;;;;;4995069;28;20187;-76
2022/03/07 11:10:19;;;;;;;16.02;12.45;;;;;;;;;;4980707;28;20188;-77
2022/03/07 11:12:45;;;;;;;16.60;13.48;;;;;;;;;;4978213;28;20192;-76
2022/03/07 11:15:14;;;;;;;16.80;13.82;;;;;;;;;;4977782;28;20649;-76
2022/03/07 11:17:44;;;;;;;16.35;12.57;;;;;;;;;;4978634;28;20341;-77
2022/03/07 11:20:15;;;;;;;14.60;12.52;;;;;;;;;;4978921;28;20211;-77
2022/03/07 11:22:41;;;;;;;14.13;12.18;;;;;;;;;;4976771;28;20196;-76
2022/03/07 11:25:08;;;;;;;13.50;12.10;;;;;;;;;;4976944;28;20195;-78
2022/03/07 11:27:36;;;;;;;16.20;13.18;;;;;;;;;;4982704;28;20318;-77
2022/03/07 11:30:12;;;;;;;13.77;11.48;;;;;;;;;;4978204;28;20187;-77
2022/03/07 11:32:39;;;;;;;13.52;11.60;;;;;;;;;;4969023;28;20205;-77
2022/03/07 11:35:05;;;;;;;16.38;13.88;;;;;;;;;;4970589;28;20658;-77
2022/03/07 11:37:32;;;;;;;13.63;12.07;;;;;;;;;;4980196;28;20247;-77
2022/03/07 11:39:58;;;;;;;14.13;11.13;;;;;;;;;;4975325;28;20294;-77
2022/03/07 11:42:33;;;;;;;19.65;12.40;;;;;;;;;;4977682;28;20225;-77
2022/03/07 11:45:11;;;;;;;16.30;12.82;;;;;;;;;;4975864;28;20191;-77
2022/03/07 11:47:40;;;;;;;19.08;13.20;;;;;;;;;;4970781;28;20237;-77
2022/03/07 11:50:07;;;;;;;12.80;11.07;;;;;;;;;;4977958;28;20192;-77
2022/03/07 11:52:34;;;;;;;13.82;11.88;;;;;;;;;;4981030;28;20196;-77
2022/03/07 11:55:01;;;;;;;13.05;11.27;;;;;;;;;;4970418;28;20190;-77
2022/03/07 11:57:35;;;;;;;14.20;12.07;;;;;;;;;;4970611;28;20181;-77
2022/03/07 12:00:19;;;;;;;14.52;12.98;;;;;;;;;;4978205;28;20234;-77
2022/03/07 12:02:47;;;;;;;12.13;10.93;;;;;;;;;;4968762;28;20185;-78
2022/03/07 12:05:23;;;;;;;11.95;10.75;;;;;;;;;;4976297;28;20856;-78
2022/03/07 12:07:49;;;;;;;12.75;11.55;;;;;;;;;;4978057;28;20179;-77
2022/03/07 12:10:16;;;;;;;14.85;13.05;;;;;;;;;;4979312;28;20180;-78
2022/03/07 12:12:42;;;;;;;12.55;11.32;;;;;;;;;;4978269;28;20180;-78
2022/03/07 12:15:09;;;;;;;12.00;10.85;;;;;;;;;;4976623;28;20665;-78
2022/03/07 12:17:35;;;;;;;12.43;11.23;;;;;;;;;;4979479;28;20216;-78
2022/03/07 12:20:01;;;;;;;12.95;11.65;;;;;;;;;;4977297;28;20418;-78
2022/03/07 12:22:28;;;;;;;12.48;11.30;;;;;;;;;;4977593;28;20245;-77
2022/03/07 12:24:57;;;;;;;12.23;10.98;;;;;;;;;;4978098;28;20179;-78
2022/03/07 12:27:23;;;;;;;13.38;11.75;;;;;;;;;;4967148;28;20230;-77
2022/03/07 12:29:51;;;;;;;13.18;11.93;;;;;;;;;;4972739;28;20191;-77
2022/03/07 12:32:17;;;;;;;12.45;11.30;;;;;;;;;;4982207;28;20184;-78
2022/03/07 12:34:43;;;;;;;13.50;12.20;;;;;;;;;;4982338;28;20990;-77
2022/03/07 12:37:11;;;;;;;13.60;12.30;;;;;;;;;;4982742;28;20503;-78
2022/03/07 12:39:47;;;;;;;12.80;11.60;;;;;;;;;;4975736;28;20219;-77
2022/03/07 12:42:14;;;;;;;12.30;10.70;;;;;;;;;;4978354;28;20203;-77
2022/03/07 12:44:40;;;;;;;12.15;10.90;;;;;;;;;;4981145;28;20188;-77
2022/03/07 12:47:07;;;;;;;15.35;13.95;;;;;;;;;;4982313;28;20184;-77
2022/03/07 12:49:33;;;;;;;14.05;12.18;;;;;;;;;;4979931;28;20192;-78
2022/03/07 12:52:06;;;;;;;13.30;12.10;;;;;;;;;;4981500;28;20184;-77
2022/03/07 12:54:33;;;;;;;13.70;12.40;;;;;;;;;;4972692;28;20431;-78
2022/03/07 12:56:59;;;;;;;14.75;13.32;;;;;;;;;;4972467;28;20197;-78
2022/03/07 12:59:27;;;;;;;13.38;12.07;;;;;;;;;;4975033;28;20214;-77
2022/03/07 13:01:53;;;;;;;13.40;12.07;;;;;;;;;;4981897;28;20211;-77
2022/03/07 13:04:21;;;;;;;14.18;12.77;;;;;;;;;;4984309;28;20192;-77
2022/03/07 13:06:51;;;;;;;12.15;10.95;;;;;;;;;;4968991;28;20182;-77
2022/03/07 13:09:19;;;;;;;13.18;11.93;;;;;;;;;;4983402;28;20203;-77
2022/03/07 13:11:47;;;;;;;11.35;10.38;;;;;;;;;;4981070;28;20191;-77
2022/03/07 13:14:27;;;;;;;13.90;12.60;;;;;;;;;;4980271;28;20550;-77
2022/03/07 13:16:54;;;;;;;12.57;11.27;;;;;;;;;;4971036;28;20195;-77
2022/03/07 13:19:22;;;;;;;12.32;11.23;;;;;;;;;;4967402;28;20213;-77
2022/03/07 13:21:49;;;;;;;13.82;12.10;;;;;;;;;;4978471;28;20204;-77
2022/03/07 13:24:23;;;;;;;13.07;11.73;;;;;;;;;;4974496;28;20191;-76
2022/03/07 13:27:09;;;;;;;12.85;11.65;;;;;;;;;;4977321;28;20182;-77
2022/03/07 13:29:37;;;;;;;13.63;12.35;;;;;;;;;;4982045;28;20259;-78
2022/03/07 13:32:07;;;;;;;12.65;11.40;;;;;;;;;;4981476;28;20272;-78
2022/03/07 13:34:51;;;;;;;13.77;12.55;;;;;;;;;;4982750;28;20195;-77
2022/03/07 13:37:30;;;;;;;12.50;11.02;;;;;;;;;;4982535;28;20191;-77
2022/03/07 13:40:00;;;;;;;12.45;11.35;;;;;;;;;;4977960;28;20230;-78
2022/03/07 13:42:26;;;;;;;11.80;10.60;;;;;;;;;;4981834;28;20234;-78
2022/03/07 13:44:57;;;;;;;12.10;10.90;;;;;;;;;;4974974;28;20242;-77
2022/03/07 13:47:24;;;;;;;13.90;12.70;;;;;;;;;;4992643;28;20182;-78
2022/03/07 13:49:52;;;;;;;12.50;11.38;;;;;;;;;;4972447;28;20188;-78
2022/03/07 13:52:22;;;;;;;16.48;13.23;;;;;;;;;;4964445;28;20188;-77
2022/03/07 13:54:49;;;;;;;14.00;12.60;;;;;;;;;;4980448;28;20185;-78
2022/03/07 13:57:16;;;;;;;12.27;11.07;;;;;;;;;;4979562;28;20186;-78
2022/03/07 13:59:55;;;;;;;13.80;12.50;;;;;;;;;;4978821;28;20221;-78
2022/03/07 14:02:22;;;;;;;13.20;11.63;;;;;;;;;;4972053;28;20200;-77
2022/03/07 14:04:58;;;;;;;12.47;11.27;;;;;;;;;;4982065;28;20413;-78
2022/03/07 14:07:28;;;;;;;13.00;11.90;;;;;;;;;;4967651;28;20441;-78
2022/03/07 14:09:59;;;;;;;12.23;11.20;;;;;;;;;;4968410;28;20411;-78
2022/03/07 14:12:28;;;;;;;12.70;11.60;;;;;;;;;;4970428;28;20413;-78
2022/03/07 14:14:55;;;;;;;11.20;10.27;;;;;;;;;;4993543;28;20790;-78